createdAt,value
2018-03-07T00:01:32.769Z,97947.51
2018-03-07T00:04:00.269Z,97950.23
2018-03-07T00:06:27.753Z,97953.33
2018-03-07T00:08:55.213Z,97953.05
2018-03-07T00:11:22.671Z,97955.15
2018-03-07T00:13:50.171Z,97951.77
2018-03-07T00:16:17.599Z,97951.08
2018-03-07T00:18:45.101Z,97952.24
2018-03-07T00:21:12.555Z,97954.75
2018-03-07T00:23:40.130Z,97954.68
2018-03-07T00:26:07.601Z,97957.48
2018-03-07T00:28:35.023Z,97960.76
2018-03-07T00:31:02.540Z,97958.20
2018-03-07T00:33:30.037Z,97957.04
2018-03-07T00:35:57.543Z,97953.72
2018-03-07T00:38:25.062Z,97953.66
2018-03-07T00:40:52.549Z,97957.65
2018-03-07T00:43:20.011Z,97956.52
2018-03-07T00:45:47.465Z,97955.75
2018-03-07T00:48:14.989Z,97958.16
2018-03-07T00:50:42.447Z,97964.63
2018-03-07T00:53:09.957Z,97955.27
2018-03-07T00:55:37.402Z,97954.84
2018-03-07T00:58:04.947Z,97956.66
2018-03-07T01:00:32.453Z,97955.31
2018-03-07T01:02:59.900Z,97954.95
2018-03-07T01:05:27.369Z,97951.46
2018-03-07T01:07:54.825Z,97954.59
2018-03-07T01:10:22.337Z,97950.12
2018-03-07T01:12:49.817Z,97956.30
2018-03-07T01:15:17.271Z,97950.87
2018-03-07T01:17:44.750Z,97953.20
2018-03-07T01:20:12.203Z,97952.77
2018-03-07T01:22:39.644Z,97947.39
2018-03-07T01:25:07.116Z,97943.19
2018-03-07T01:27:34.610Z,97943.16
2018-03-07T01:30:02.055Z,97943.37
2018-03-07T01:32:29.553Z,97945.52
2018-03-07T01:34:57.052Z,97939.66
2018-03-07T01:37:25.227Z,97939.98
2018-03-07T01:39:54.999Z,97941.95
2018-03-07T01:42:22.490Z,97943.17
2018-03-07T01:44:49.949Z,97938.87
2018-03-07T01:47:17.400Z,97934.86
2018-03-07T01:49:44.935Z,97932.73
2018-03-07T01:52:12.392Z,97938.44
2018-03-07T01:54:39.903Z,97935.19
2018-03-07T01:57:07.362Z,97930.61
2018-03-07T01:59:34.846Z,97931.00
2018-03-07T02:02:02.301Z,97931.14
2018-03-07T02:04:29.812Z,97932.93
2018-03-07T02:06:57.302Z,97930.27
2018-03-07T02:09:24.763Z,97929.72
2018-03-07T02:11:52.230Z,97938.34
2018-03-07T02:14:19.810Z,97933.52
2018-03-07T02:16:47.278Z,97933.66
2018-03-07T02:19:14.760Z,97934.03
2018-03-07T02:21:42.245Z,97934.77
2018-03-07T02:24:09.720Z,97933.33
2018-03-07T02:26:37.162Z,97934.70
2018-03-07T02:29:04.694Z,97934.00
2018-03-07T02:31:32.137Z,97937.47
2018-03-07T02:33:59.700Z,97939.33
2018-03-07T02:36:33.491Z,97936.20
2018-03-07T02:39:01.023Z,97934.01
2018-03-07T02:41:28.507Z,97932.70
2018-03-07T02:43:55.969Z,97930.99
2018-03-07T02:46:23.444Z,97937.02
2018-03-07T02:48:50.891Z,97939.06
2018-03-07T02:51:18.367Z,97932.55
2018-03-07T02:53:45.813Z,97932.72
2018-03-07T02:56:13.260Z,97937.53
2018-03-07T02:58:40.774Z,97930.42
2018-03-07T03:01:08.232Z,97933.89
2018-03-07T03:03:35.755Z,97937.94
2018-03-07T03:08:30.300Z,97937.02
2018-03-07T03:10:57.758Z,97944.11
2018-03-07T03:13:26.344Z,97951.08
2018-03-07T03:15:53.779Z,97937.11
2018-03-07T03:18:21.236Z,97949.70
2018-03-07T03:20:48.692Z,97941.74
2018-03-07T03:23:16.150Z,97941.55
2018-03-07T03:25:43.609Z,97942.99
2018-03-07T03:28:11.654Z,97948.63
2018-03-07T03:30:39.105Z,97940.55
2018-03-07T03:33:06.570Z,97935.48
2018-03-07T03:35:34.044Z,97938.19
2018-03-07T03:38:01.490Z,97943.84
2018-03-07T03:40:29.208Z,97939.30
2018-03-07T03:42:56.667Z,97941.18
2018-03-07T03:45:24.119Z,97937.66
2018-03-07T03:47:51.601Z,97940.64
2018-03-07T03:50:19.050Z,97945.64
2018-03-07T03:52:46.544Z,97946.81
2018-03-07T03:55:14.087Z,97946.67
2018-03-07T03:57:46.503Z,97943.84
2018-03-07T04:00:13.944Z,97943.08
2018-03-07T04:02:41.437Z,97951.59
2018-03-07T04:05:08.909Z,97946.89
2018-03-07T04:07:36.373Z,97946.52
2018-03-07T04:10:03.841Z,97949.00
2018-03-07T04:12:31.313Z,97945.08
2018-03-07T04:14:58.775Z,97948.09
2018-03-07T04:17:26.239Z,97949.42
2018-03-07T04:19:53.768Z,97950.70
2018-03-07T04:22:22.122Z,97945.73
2018-03-07T04:24:49.587Z,97941.95
2018-03-07T04:27:17.097Z,97952.55
2018-03-07T04:29:44.606Z,97942.59
2018-03-07T04:32:12.111Z,97945.91
2018-03-07T04:34:39.638Z,97948.74
2018-03-07T04:37:07.096Z,97946.38
2018-03-07T04:39:34.552Z,97950.99
2018-03-07T04:42:02.048Z,97943.77
2018-03-07T04:44:29.479Z,97950.53
2018-03-07T04:46:56.968Z,97947.48
2018-03-07T04:49:24.445Z,97948.03
2018-03-07T04:51:51.909Z,97951.08
2018-03-07T04:54:19.376Z,97953.15
2018-03-07T04:56:46.845Z,97957.22
2018-03-07T04:59:14.291Z,97957.48
2018-03-07T05:01:41.749Z,97951.73
2018-03-07T05:04:09.211Z,97950.68
2018-03-07T05:06:36.666Z,97956.67
2018-03-07T05:09:04.158Z,97952.87
2018-03-07T05:11:31.630Z,97954.46
2018-03-07T05:13:59.083Z,97957.45
2018-03-07T05:16:26.599Z,97960.69
2018-03-07T05:18:54.089Z,97963.73
2018-03-07T05:21:21.628Z,97964.39
2018-03-07T05:23:49.147Z,97960.72
2018-03-07T05:26:16.654Z,97965.95
2018-03-07T05:28:44.115Z,97965.86
2018-03-07T05:31:11.619Z,97965.52
2018-03-07T05:33:39.118Z,97967.06
2018-03-07T05:36:06.705Z,97975.56
2018-03-07T05:38:34.171Z,97970.30
2018-03-07T05:41:01.971Z,97962.96
2018-03-07T05:43:30.402Z,97962.70
2018-03-07T05:45:57.924Z,97965.04
2018-03-07T05:48:25.382Z,97963.95
2018-03-07T05:50:52.839Z,97968.20
2018-03-07T05:53:20.331Z,97973.20
2018-03-07T05:55:47.801Z,97977.89
2018-03-07T05:58:15.252Z,97974.48
2018-03-07T06:00:42.757Z,97972.20
2018-03-07T06:03:10.537Z,97970.92
2018-03-07T06:05:38.003Z,97977.61
2018-03-07T06:08:06.223Z,97981.25
2018-03-07T06:10:33.729Z,97980.17
2018-03-07T06:13:01.313Z,97986.97
2018-03-07T06:15:28.751Z,97990.19
2018-03-07T06:17:56.284Z,97989.93
2018-03-07T06:20:23.785Z,98001.93
2018-03-07T06:22:51.221Z,97996.98
2018-03-07T06:25:18.675Z,98005.17
2018-03-07T06:27:46.185Z,97993.66
2018-03-07T06:30:13.695Z,98006.63
2018-03-07T06:32:41.173Z,98006.51
2018-03-07T06:35:08.756Z,98005.45
2018-03-07T06:37:36.280Z,98009.21
2018-03-07T06:40:03.751Z,98014.67
2018-03-07T06:42:31.243Z,98011.75
2018-03-07T06:44:58.751Z,98013.23
2018-03-07T06:47:26.261Z,98011.66
2018-03-07T06:49:54.702Z,98015.27
2018-03-07T06:52:22.237Z,98014.84
2018-03-07T06:54:49.811Z,98023.39
2018-03-07T06:57:17.281Z,98021.67
2018-03-07T06:59:44.781Z,98028.63
2018-03-07T07:02:12.257Z,98026.27
2018-03-07T07:04:39.750Z,98027.17
2018-03-07T07:07:07.213Z,98027.31
2018-03-07T07:09:34.698Z,98033.20
2018-03-07T07:12:02.217Z,98036.10
2018-03-07T07:14:29.709Z,98037.55
2018-03-07T07:16:57.232Z,98035.82
2018-03-07T07:19:24.697Z,98041.42
2018-03-07T07:21:52.177Z,98048.91
2018-03-07T07:24:19.615Z,98047.80
2018-03-07T07:29:14.821Z,98049.96
2018-03-07T07:31:42.435Z,98046.38
2018-03-07T07:34:09.942Z,98049.84
2018-03-07T07:36:37.433Z,98057.75
2018-03-07T07:39:04.897Z,98058.35
2018-03-07T07:41:32.353Z,98056.47
2018-03-07T07:43:59.906Z,98069.51
2018-03-07T07:46:27.378Z,98068.42
2018-03-07T07:48:54.820Z,98067.14
2018-03-07T07:51:22.305Z,98069.08
2018-03-07T07:53:49.749Z,98070.67
2018-03-07T07:56:17.240Z,98067.59
2018-03-07T07:58:44.719Z,98074.36
2018-03-07T08:01:12.176Z,98077.06
2018-03-07T08:03:39.714Z,98072.08
2018-03-07T08:06:07.189Z,98073.65
2018-03-07T08:08:34.651Z,98070.34
2018-03-07T08:11:02.111Z,98071.28
2018-03-07T08:13:29.586Z,98067.47
2018-03-07T08:15:57.048Z,98070.88
2018-03-07T08:18:24.502Z,98073.98
2018-03-07T08:20:52.011Z,98083.38
2018-03-07T08:23:19.485Z,98084.14
2018-03-07T08:25:47.638Z,98090.13
2018-03-07T08:28:15.133Z,98082.11
2018-03-07T08:30:42.607Z,98092.82
2018-03-07T08:33:10.045Z,98101.00
2018-03-07T08:35:37.490Z,98094.67
2018-03-07T08:38:05.142Z,98095.51
2018-03-07T08:40:33.297Z,98096.64
2018-03-07T08:43:00.750Z,98104.22
2018-03-07T08:45:28.255Z,98107.86
2018-03-07T08:47:55.767Z,98108.85
2018-03-07T08:50:23.213Z,98107.98
2018-03-07T08:52:50.683Z,98113.66
2018-03-07T08:55:18.148Z,98113.77
2018-03-07T08:57:45.659Z,98116.25
2018-03-07T09:00:13.163Z,98116.52
2018-03-07T09:02:40.757Z,98113.31
2018-03-07T09:05:08.238Z,98112.45
2018-03-07T09:07:35.692Z,98117.44
2018-03-07T09:10:03.162Z,98118.45
2018-03-07T09:12:30.609Z,98120.50
2018-03-07T09:14:58.875Z,98122.91
2018-03-07T09:17:27.208Z,98130.30
2018-03-07T09:19:54.695Z,98122.64
2018-03-07T09:22:22.219Z,98120.92
2018-03-07T09:24:49.719Z,98128.22
2018-03-07T09:27:17.198Z,98121.50
2018-03-07T09:29:44.684Z,98120.96
2018-03-07T09:32:12.158Z,98122.34
2018-03-07T09:34:39.653Z,98128.36
2018-03-07T09:37:07.153Z,98130.30
2018-03-07T09:39:34.631Z,98128.64
2018-03-07T09:42:02.117Z,98131.91
2018-03-07T09:44:29.589Z,98135.92
2018-03-07T09:46:57.167Z,98136.25
2018-03-07T09:49:24.635Z,98140.10
2018-03-07T09:51:52.163Z,98139.01
2018-03-07T09:54:19.623Z,98149.48
2018-03-07T09:56:47.090Z,98136.77
2018-03-07T09:59:14.555Z,98139.47
2018-03-07T10:01:42.023Z,98141.42
2018-03-07T10:04:09.787Z,98147.66
2018-03-07T10:06:37.330Z,98148.31
2018-03-07T10:09:04.775Z,98144.30
2018-03-07T10:11:32.231Z,98141.41
2018-03-07T10:13:59.733Z,98147.17
2018-03-07T10:16:27.273Z,98144.47
2018-03-07T10:18:54.709Z,98142.95
2018-03-07T10:21:22.214Z,98146.96
2018-03-07T10:23:49.671Z,98145.47
2018-03-07T10:26:17.134Z,98154.02
2018-03-07T10:28:44.628Z,98157.56
2018-03-07T10:31:12.143Z,98155.84
2018-03-07T10:33:39.673Z,98156.97
2018-03-07T10:36:07.171Z,98155.65
2018-03-07T10:38:34.633Z,98156.30
2018-03-07T10:41:02.155Z,98153.00
2018-03-07T10:43:29.645Z,98153.52
2018-03-07T10:45:57.100Z,98159.27
2018-03-07T10:48:24.680Z,98163.94
2018-03-07T10:50:52.144Z,98164.66
2018-03-07T10:53:19.663Z,98158.89
2018-03-07T10:55:47.182Z,98163.61
2018-03-07T10:58:14.634Z,98157.52
2018-03-07T11:00:42.189Z,98166.09
2018-03-07T11:03:09.700Z,98173.70
2018-03-07T11:05:37.209Z,98177.31
2018-03-07T11:08:04.683Z,98180.78
2018-03-07T11:10:32.195Z,98180.88
2018-03-07T11:12:59.630Z,98192.72
2018-03-07T11:15:27.075Z,98189.07
2018-03-07T11:17:59.627Z,98196.56
2018-03-07T11:20:27.194Z,98188.32
2018-03-07T11:22:54.688Z,98189.34
2018-03-07T11:25:22.244Z,98189.53
2018-03-07T11:27:49.754Z,98187.80
2018-03-07T11:30:17.258Z,98188.71
2018-03-07T11:32:44.766Z,98181.26
2018-03-07T11:35:12.269Z,98188.06
2018-03-07T11:37:40.530Z,98190.91
2018-03-07T11:40:08.069Z,98188.53
2018-03-07T11:42:35.566Z,98190.69
2018-03-07T11:45:03.093Z,98196.67
2018-03-07T11:47:30.577Z,98195.75
2018-03-07T11:49:58.205Z,98194.25
2018-03-07T11:52:25.696Z,98194.87
2018-03-07T11:54:53.258Z,98194.45
2018-03-07T11:57:20.697Z,98193.53
2018-03-07T11:59:48.166Z,98195.05
2018-03-07T12:02:15.619Z,98202.84
2018-03-07T12:04:43.127Z,98202.12
2018-03-07T12:07:10.683Z,98210.56
2018-03-07T12:09:38.172Z,98206.72
2018-03-07T12:12:05.634Z,98205.47
2018-03-07T12:14:33.110Z,98196.58
2018-03-07T12:17:01.153Z,98198.70
2018-03-07T12:19:33.671Z,98201.73
2018-03-07T12:22:01.176Z,98197.25
2018-03-07T12:24:28.726Z,98205.24
2018-03-07T12:26:56.190Z,98204.08
2018-03-07T12:29:23.661Z,98202.83
2018-03-07T12:31:51.112Z,98193.16
2018-03-07T12:34:18.607Z,98201.50
2018-03-07T12:36:46.051Z,98199.39
2018-03-07T12:39:13.525Z,98204.84
2018-03-07T12:41:41.004Z,98209.47
2018-03-07T12:44:08.440Z,98201.47
2018-03-07T12:46:35.973Z,98204.26
2018-03-07T12:49:03.429Z,98207.80
2018-03-07T12:51:30.961Z,98203.59
2018-03-07T12:53:58.452Z,98206.22
2018-03-07T12:56:25.947Z,98202.42
2018-03-07T12:58:53.449Z,98211.18
2018-03-07T13:01:20.916Z,98210.36
2018-03-07T13:03:48.390Z,98211.22
2018-03-07T13:06:15.883Z,98216.13
2018-03-07T13:08:43.356Z,98231.58
2018-03-07T13:11:10.814Z,98232.44
2018-03-07T13:13:38.247Z,98228.01
2018-03-07T13:16:05.770Z,98226.42
2018-03-07T13:18:33.224Z,98230.52
2018-03-07T13:21:00.682Z,98230.03
2018-03-07T13:23:28.138Z,98236.70
2018-03-07T13:25:57.766Z,98242.42
2018-03-07T13:28:25.248Z,98246.00
2018-03-07T13:30:52.712Z,98249.70
2018-03-07T13:33:20.199Z,98246.94
2018-03-07T13:35:47.684Z,98256.43
2018-03-07T13:38:15.174Z,98247.64
2018-03-07T13:40:42.628Z,98248.33
2018-03-07T13:43:10.066Z,98245.78
2018-03-07T13:45:37.705Z,98252.72
2018-03-07T13:48:05.182Z,98245.82
2018-03-07T13:50:32.638Z,98251.11
2018-03-07T13:53:00.128Z,98247.52
2018-03-07T13:55:27.632Z,98255.55
2018-03-07T13:57:55.164Z,98253.06
2018-03-07T14:00:22.664Z,98248.19
2018-03-07T14:02:50.136Z,98254.65
2018-03-07T14:05:17.624Z,98251.02
2018-03-07T14:07:45.130Z,98256.84
2018-03-07T14:10:12.660Z,98252.50
2018-03-07T14:12:40.139Z,98259.61
2018-03-07T14:15:07.602Z,98251.57
2018-03-07T14:17:35.042Z,98249.34
2018-03-07T14:20:02.514Z,98255.24
2018-03-07T14:22:29.974Z,98254.87
2018-03-07T14:24:57.470Z,98253.38
2018-03-07T14:27:24.932Z,98253.77
2018-03-07T14:29:53.359Z,98253.16
2018-03-07T14:32:20.836Z,98256.73
2018-03-07T14:34:48.300Z,98262.38
2018-03-07T14:37:15.806Z,98259.41
2018-03-07T14:39:43.321Z,98266.07
2018-03-07T14:42:10.775Z,98273.90
2018-03-07T14:44:38.254Z,98271.30
2018-03-07T14:47:05.733Z,98268.75
2018-03-07T14:49:33.284Z,98265.95
2018-03-07T14:52:00.766Z,98266.39
2018-03-07T14:54:28.216Z,98268.53
2018-03-07T14:56:55.702Z,98266.42
2018-03-07T14:59:23.169Z,98262.13
2018-03-07T15:01:50.653Z,98269.70
2018-03-07T15:04:18.128Z,98257.64
2018-03-07T15:06:45.604Z,98261.81
2018-03-07T15:09:14.200Z,98270.43
2018-03-07T15:11:41.653Z,98265.31
2018-03-07T15:16:51.026Z,98271.51
2018-03-07T15:19:18.537Z,98268.35
2018-03-07T15:21:45.987Z,98271.54
2018-03-07T15:24:13.535Z,98277.00
2018-03-07T15:26:40.990Z,98268.38
2018-03-07T15:29:08.462Z,98268.20
2018-03-07T15:31:36.181Z,98270.06
2018-03-07T15:34:03.658Z,98274.91
2018-03-07T15:36:31.311Z,98278.16
2018-03-07T15:38:58.757Z,98281.56
2018-03-07T15:41:27.766Z,98279.60
2018-03-07T15:43:55.286Z,98285.13
2018-03-07T15:46:22.758Z,98284.54
2018-03-07T15:48:50.217Z,98289.91
2018-03-07T15:51:17.722Z,98294.53
2018-03-07T15:53:45.227Z,98287.33
2018-03-07T15:56:12.739Z,98293.19
2018-03-07T15:58:40.244Z,98293.25
2018-03-07T16:01:07.749Z,98294.69
2018-03-07T16:03:35.205Z,98304.92
2018-03-07T16:06:02.642Z,98306.30
2018-03-07T16:08:30.119Z,98304.09
2018-03-07T16:10:58.379Z,98313.53
2018-03-07T16:13:25.837Z,98314.79
2018-03-07T16:15:53.314Z,98317.12
2018-03-07T16:18:20.756Z,98318.89
2018-03-07T16:20:48.523Z,98315.55
2018-03-07T16:23:16.021Z,98317.08
2018-03-07T16:25:43.522Z,98317.75
2018-03-07T16:28:11.033Z,98323.72
2018-03-07T16:30:38.510Z,98328.10
2018-03-07T16:33:05.997Z,98330.58
2018-03-07T16:35:33.481Z,98328.27
2018-03-07T16:38:01.001Z,98333.38
2018-03-07T16:40:28.457Z,98336.17
2018-03-07T16:42:55.971Z,98328.53
2018-03-07T16:45:23.453Z,98331.92
2018-03-07T16:47:51.066Z,98333.64
2018-03-07T16:50:18.509Z,98338.06
2018-03-07T16:52:45.972Z,98335.48
2018-03-07T16:55:13.522Z,98346.87
2018-03-07T16:57:41.005Z,98340.41
2018-03-07T17:00:08.639Z,98344.29
2018-03-07T17:02:36.126Z,98344.56
2018-03-07T17:05:04.466Z,98350.23
2018-03-07T17:07:31.957Z,98352.25
2018-03-07T17:09:59.571Z,98359.20
2018-03-07T17:12:27.067Z,98362.19
2018-03-07T17:14:54.584Z,98369.48
2018-03-07T17:17:22.097Z,98365.16
2018-03-07T17:19:49.572Z,98372.27
2018-03-07T17:22:17.054Z,98380.33
2018-03-07T17:24:44.524Z,98375.92
2018-03-07T17:27:11.965Z,98387.06
2018-03-07T17:29:39.473Z,98382.55
2018-03-07T17:32:06.957Z,98387.02
2018-03-07T17:34:34.401Z,98401.41
2018-03-07T17:37:01.894Z,98403.03
2018-03-07T17:39:29.421Z,98398.06
2018-03-07T17:41:56.999Z,98401.09
2018-03-07T17:44:24.448Z,98408.59
2018-03-07T17:46:51.897Z,98406.31
2018-03-07T17:49:19.399Z,98408.40
2018-03-07T17:51:46.851Z,98409.72
2018-03-07T17:54:14.315Z,98414.59
2018-03-07T17:56:41.779Z,98415.80
2018-03-07T17:59:09.277Z,98421.07
2018-03-07T18:01:36.806Z,98418.12
2018-03-07T18:04:04.278Z,98419.95
2018-03-07T18:06:31.777Z,98424.45
2018-03-07T18:08:59.240Z,98428.75
2018-03-07T18:11:26.762Z,98427.34
2018-03-07T18:13:54.215Z,98434.39
2018-03-07T18:16:21.682Z,98441.28
2018-03-07T18:18:49.153Z,98438.13
2018-03-07T18:21:16.649Z,98436.02
2018-03-07T18:23:44.239Z,98439.72
2018-03-07T18:26:11.692Z,98438.69
2018-03-07T18:28:39.141Z,98443.61
2018-03-07T18:31:06.631Z,98450.65
2018-03-07T18:33:34.093Z,98449.23
2018-03-07T18:36:01.573Z,98448.86
2018-03-07T18:38:29.061Z,98458.59
2018-03-07T18:40:56.615Z,98462.15
2018-03-07T18:43:24.091Z,98466.95
2018-03-07T18:45:51.634Z,98465.23
2018-03-07T18:48:19.165Z,98463.86
2018-03-07T18:50:46.623Z,98464.93
2018-03-07T18:53:14.065Z,98469.48
2018-03-07T18:55:41.543Z,98462.89
2018-03-07T18:58:10.391Z,98467.29
2018-03-07T19:00:37.903Z,98464.66
2018-03-07T19:03:05.357Z,98464.95
2018-03-07T19:05:33.736Z,98474.69
2018-03-07T19:08:01.185Z,98477.17
2018-03-07T19:10:28.653Z,98473.38
2018-03-07T19:12:56.107Z,98474.02
2018-03-07T19:15:23.562Z,98476.00
2018-03-07T19:17:51.046Z,98478.89
2018-03-07T19:20:20.383Z,98477.37
2018-03-07T19:22:47.837Z,98476.45
2018-03-07T19:25:15.331Z,98475.43
2018-03-07T19:27:42.795Z,98482.42
2018-03-07T19:30:10.267Z,98481.01
2018-03-07T19:32:37.721Z,98486.20
2018-03-07T19:35:05.176Z,98488.88
2018-03-07T19:37:33.003Z,98491.92
2018-03-07T19:40:00.471Z,98489.44
2018-03-07T19:42:27.912Z,98495.77
2018-03-07T19:44:55.380Z,98498.03
2018-03-07T19:47:22.837Z,98509.13
2018-03-07T19:49:50.318Z,98510.73
2018-03-07T19:52:17.781Z,98512.34
2018-03-07T19:54:45.260Z,98515.17
2018-03-07T19:57:12.747Z,98513.56
2018-03-07T19:59:40.213Z,98513.60
2018-03-07T20:02:07.948Z,98516.89
2018-03-07T20:04:35.451Z,98518.32
2018-03-07T20:07:02.931Z,98515.06
2018-03-07T20:09:30.409Z,98518.32
2018-03-07T20:11:57.860Z,98526.22
2018-03-07T20:14:25.335Z,98524.67
2018-03-07T20:16:52.803Z,98529.01
2018-03-07T20:19:20.262Z,98534.17
2018-03-07T20:21:47.741Z,98532.08
2018-03-07T20:24:15.219Z,98528.28
2018-03-07T20:26:42.774Z,98525.10
2018-03-07T20:29:10.262Z,98528.83
2018-03-07T20:31:37.743Z,98532.38
2018-03-07T20:34:05.242Z,98531.31
2018-03-07T20:36:32.737Z,98538.27
2018-03-07T20:39:00.253Z,98536.80
2018-03-07T20:41:27.712Z,98537.75
2018-03-07T20:43:55.164Z,98540.86
2018-03-07T20:46:22.629Z,98544.44
2018-03-07T20:48:50.057Z,98547.69
2018-03-07T20:51:17.573Z,98545.64
2018-03-07T20:53:45.042Z,98548.64
2018-03-07T20:56:12.602Z,98545.39
2018-03-07T20:58:40.101Z,98559.87
2018-03-07T21:01:07.566Z,98554.75
2018-03-07T21:03:35.012Z,98553.95
2018-03-07T21:06:02.474Z,98554.90
2018-03-07T21:08:30.023Z,98559.36
2018-03-07T21:10:57.508Z,98557.82
2018-03-07T21:13:24.996Z,98557.42
2018-03-07T21:15:52.476Z,98560.57
2018-03-07T21:18:19.969Z,98561.41
2018-03-07T21:20:47.405Z,98562.72
2018-03-07T21:23:14.877Z,98567.91
2018-03-07T21:25:42.359Z,98565.13
2018-03-07T21:28:09.833Z,98569.85
2018-03-07T21:30:37.292Z,98572.38
2018-03-07T21:33:04.746Z,98573.73
2018-03-07T21:35:32.218Z,98581.99
2018-03-07T21:37:59.700Z,98579.88
2018-03-07T21:40:27.138Z,98582.55
2018-03-07T21:42:54.596Z,98588.39
2018-03-07T21:45:22.725Z,98583.16
2018-03-07T21:47:50.872Z,98586.70
2018-03-07T21:50:18.961Z,98585.10
2018-03-07T21:52:46.390Z,98586.56
2018-03-07T21:55:13.840Z,98583.16
2018-03-07T21:57:41.448Z,98589.20
2018-03-07T22:00:08.928Z,98595.48
2018-03-07T22:02:36.922Z,98593.36
2018-03-07T22:05:04.511Z,98590.44
2018-03-07T22:07:31.980Z,98594.09
2018-03-07T22:09:59.435Z,98595.95
2018-03-07T22:12:26.862Z,98594.93
2018-03-07T22:14:54.466Z,98596.66
2018-03-07T22:17:21.936Z,98593.14
2018-03-07T22:19:49.392Z,98594.45
2018-03-07T22:22:16.829Z,98600.38
2018-03-07T22:24:44.310Z,98595.45
2018-03-07T22:27:11.774Z,98601.58
2018-03-07T22:29:39.218Z,98600.78
2018-03-07T22:32:06.701Z,98599.36
2018-03-07T22:34:34.139Z,98601.19
2018-03-07T22:37:01.569Z,98603.67
2018-03-07T22:39:29.035Z,98607.62
2018-03-07T22:41:56.530Z,98602.75
2018-03-07T22:44:23.958Z,98604.33
2018-03-07T22:46:51.453Z,98602.94
2018-03-07T22:49:18.876Z,98612.77
2018-03-07T22:51:46.379Z,98615.77
2018-03-07T22:54:13.840Z,98616.17
2018-03-07T22:56:41.344Z,98616.06
2018-03-07T22:59:08.792Z,98618.18
2018-03-07T23:01:36.219Z,98613.58
2018-03-07T23:04:03.710Z,98613.72
2018-03-07T23:06:31.148Z,98615.18
2018-03-07T23:08:58.599Z,98617.19
2018-03-07T23:11:26.079Z,98620.59
2018-03-07T23:13:53.522Z,98620.73
2018-03-07T23:16:20.965Z,98624.83
2018-03-07T23:18:48.470Z,98630.13
2018-03-07T23:21:16.110Z,98634.73
2018-03-07T23:23:43.560Z,98636.52
2018-03-07T23:26:11.014Z,98640.84
2018-03-07T23:28:38.477Z,98640.19
2018-03-07T23:31:05.975Z,98647.42
2018-03-07T23:33:33.440Z,98645.30
2018-03-07T23:36:00.876Z,98648.19
2018-03-07T23:38:28.349Z,98643.07
2018-03-07T23:40:55.788Z,98648.59
2018-03-07T23:43:23.236Z,98655.02
2018-03-07T23:45:50.661Z,98649.02
2018-03-07T23:48:18.144Z,98651.91
2018-03-07T23:50:45.636Z,98655.49
2018-03-07T23:53:13.068Z,98655.20
2018-03-07T23:55:40.553Z,98655.66
2018-03-07T23:58:08.017Z,98648.70
